createdAt,value
2019-02-22T00:00:34.909Z,21.70
2019-02-22T00:03:03.656Z,19.97
2019-02-22T00:05:32.761Z,21.87
2019-02-22T00:08:01.640Z,19.40
2019-02-22T00:10:30.536Z,18.93
2019-02-22T00:12:59.106Z,17.80
2019-02-22T00:15:27.714Z,22.20
2019-02-22T00:17:56.799Z,20.00
2019-02-22T00:20:25.435Z,20.07
2019-02-22T00:22:54.018Z,21.17
2019-02-22T00:25:22.703Z,17.13
2019-02-22T00:27:51.333Z,18.83
2019-02-22T00:30:21.590Z,19.23
2019-02-22T00:32:50.272Z,22.67
2019-02-22T00:35:19.130Z,19.53
2019-02-22T00:37:48.157Z,21.97
2019-02-22T00:40:16.723Z,20.00
2019-02-22T00:42:45.318Z,23.83
2019-02-22T00:45:14.276Z,25.13
2019-02-22T00:47:43.106Z,20.47
2019-02-22T00:50:11.775Z,16.23
2019-02-22T00:52:40.467Z,18.83
2019-02-22T00:55:09.305Z,16.57
2019-02-22T00:57:38.128Z,20.50
2019-02-22T01:00:06.930Z,15.83
2019-02-22T01:02:35.545Z,27.00
2019-02-22T01:05:04.134Z,21.40
2019-02-22T01:07:32.715Z,20.90
2019-02-22T01:10:01.308Z,13.93
2019-02-22T01:12:30.123Z,20.60
2019-02-22T01:14:58.939Z,18.17
2019-02-22T01:17:27.788Z,19.77
2019-02-22T01:19:56.400Z,19.50
2019-02-22T01:22:25.241Z,20.50
2019-02-22T01:24:54.083Z,2.00
2019-02-22T01:27:22.986Z,0.00
2019-02-22T01:29:51.559Z,0.00
2019-02-22T01:32:20.378Z,0.00
2019-02-22T01:34:48.941Z,0.00
2019-02-22T01:37:17.762Z,0.00
2019-02-22T01:39:46.385Z,0.00
2019-02-22T01:42:15.218Z,0.00
2019-02-22T01:44:43.784Z,0.00
2019-02-22T01:47:12.366Z,0.00
2019-02-22T01:49:40.923Z,0.00
2019-02-22T01:52:09.828Z,0.00
2019-02-22T01:54:38.399Z,0.00
2019-02-22T01:57:07.232Z,25.67
2019-02-22T01:59:36.061Z,0.73
2019-02-22T02:02:04.687Z,21.03
2019-02-22T02:04:33.600Z,17.10
2019-02-22T02:07:02.553Z,14.33
2019-02-22T02:09:31.140Z,20.00
2019-02-22T02:12:01.991Z,21.30
2019-02-22T02:14:30.371Z,7.00
2019-02-22T02:16:58.977Z,1.20
2019-02-22T02:19:27.556Z,10.50
2019-02-22T02:21:56.149Z,0.13
2019-02-22T02:24:24.806Z,4.50
2019-02-22T02:26:53.479Z,8.97
2019-02-22T02:29:22.067Z,0.40
2019-02-22T02:31:50.643Z,0.00
2019-02-22T02:34:19.364Z,0.00
2019-02-22T02:36:48.141Z,0.00
2019-02-22T02:39:17.138Z,0.00
2019-02-22T02:41:46.194Z,0.00
2019-02-22T02:44:14.802Z,0.00
2019-02-22T02:46:43.386Z,0.00
2019-02-22T02:49:11.965Z,0.00
2019-02-22T02:51:40.771Z,0.00
2019-02-22T02:54:09.345Z,0.00
2019-02-22T02:56:37.916Z,0.00
2019-02-22T02:59:06.768Z,0.00
2019-02-22T03:01:35.596Z,0.00
2019-02-22T03:04:04.201Z,0.00
2019-02-22T03:06:44.173Z,0.00
2019-02-22T03:09:12.755Z,0.00
2019-02-22T03:11:41.596Z,0.00
2019-02-22T03:14:10.236Z,0.00
2019-02-22T03:16:38.818Z,0.00
2019-02-22T03:19:07.388Z,0.00
2019-02-22T03:21:36.167Z,0.00
2019-02-22T03:24:04.856Z,0.00
2019-02-22T03:26:33.495Z,0.00
2019-02-22T03:29:02.080Z,3.07
2019-02-22T03:31:30.887Z,0.00
2019-02-22T03:33:59.469Z,0.00
2019-02-22T03:36:28.065Z,0.00
2019-02-22T03:38:56.653Z,0.00
2019-02-22T03:41:32.857Z,0.00
2019-02-22T03:43:55.543Z,0.00
2019-02-22T03:46:24.163Z,0.00
2019-02-22T03:48:53.206Z,0.00
2019-02-22T03:51:21.858Z,0.00
2019-02-22T03:53:56.617Z,0.00
2019-02-22T03:56:24.826Z,0.00
2019-02-22T03:58:53.460Z,0.00
2019-02-22T04:01:22.161Z,0.00
2019-02-22T04:03:50.796Z,0.00
2019-02-22T04:06:19.516Z,0.00
2019-02-22T04:08:48.130Z,0.00
2019-02-22T04:11:16.982Z,0.00
2019-02-22T04:13:45.570Z,0.00
2019-02-22T04:16:14.200Z,0.00
2019-02-22T04:18:43.270Z,0.00
2019-02-22T04:21:12.391Z,0.00
2019-02-22T04:23:40.974Z,0.00
2019-02-22T04:26:09.539Z,0.00
2019-02-22T04:28:38.410Z,0.00
2019-02-22T04:31:07.214Z,0.00
2019-02-22T04:33:35.812Z,0.00
2019-02-22T04:36:04.750Z,0.00
2019-02-22T04:38:33.320Z,0.00
2019-02-22T04:41:02.151Z,0.00
2019-02-22T04:43:30.760Z,0.00
2019-02-22T04:45:59.345Z,0.00
2019-02-22T04:48:27.977Z,0.00
2019-02-22T04:50:56.851Z,0.00
2019-02-22T04:53:25.496Z,0.00
2019-02-22T04:55:54.112Z,0.00
2019-02-22T04:58:22.734Z,0.00
2019-02-22T05:00:51.320Z,0.00
2019-02-22T05:03:19.962Z,0.30
2019-02-22T05:05:48.540Z,5.93
2019-02-22T05:08:17.137Z,15.60
2019-02-22T05:10:45.725Z,10.53
2019-02-22T05:13:14.317Z,6.20
2019-02-22T05:15:42.876Z,7.03
2019-02-22T05:18:11.452Z,0.37
2019-02-22T05:20:40.024Z,5.27
2019-02-22T05:23:08.616Z,1.33
2019-02-22T05:25:37.232Z,2.03
2019-02-22T05:28:06.275Z,9.53
2019-02-22T05:30:36.530Z,6.90
2019-02-22T05:33:05.184Z,9.33
2019-02-22T05:35:34.011Z,8.20
2019-02-22T05:38:03.075Z,11.17
2019-02-22T05:40:31.667Z,2.40
2019-02-22T05:43:00.317Z,1.70
2019-02-22T05:45:28.968Z,2.13
2019-02-22T05:47:57.532Z,0.23
2019-02-22T05:50:26.131Z,9.07
2019-02-22T05:52:54.682Z,7.73
2019-02-22T05:55:23.286Z,10.23
2019-02-22T05:57:51.865Z,11.00
2019-02-22T06:00:20.452Z,9.03
2019-02-22T06:02:49.090Z,10.53
2019-02-22T06:05:17.739Z,9.63
2019-02-22T06:07:46.311Z,11.53
2019-02-22T06:10:14.935Z,19.63
2019-02-22T06:12:43.510Z,13.63
2019-02-22T06:15:12.083Z,17.67
2019-02-22T06:17:40.677Z,9.97
2019-02-22T06:20:09.350Z,14.40
2019-02-22T06:22:38.261Z,13.00
2019-02-22T06:25:06.993Z,13.80
2019-02-22T06:27:35.660Z,11.80
2019-02-22T06:30:04.596Z,13.40
2019-02-22T06:32:33.179Z,15.03
2019-02-22T06:35:01.752Z,15.50
2019-02-22T06:37:30.336Z,14.80
2019-02-22T06:39:58.911Z,15.13
2019-02-22T06:42:27.718Z,16.20
2019-02-22T06:44:56.288Z,18.63
2019-02-22T06:47:24.899Z,21.10
2019-02-22T06:49:53.485Z,16.23
2019-02-22T06:52:22.349Z,17.43
2019-02-22T06:54:51.145Z,19.50
2019-02-22T06:57:20.029Z,19.73
2019-02-22T06:59:48.842Z,18.67
2019-02-22T07:02:17.701Z,17.37
2019-02-22T07:04:46.282Z,23.33
2019-02-22T07:07:14.875Z,22.13
2019-02-22T07:09:43.493Z,20.63
2019-02-22T07:12:18.920Z,18.00
2019-02-22T07:14:47.554Z,23.73
2019-02-22T07:17:16.131Z,22.90
2019-02-22T07:19:44.955Z,22.83
2019-02-22T07:22:13.528Z,25.13
2019-02-22T07:24:42.126Z,24.90
2019-02-22T07:27:10.710Z,26.07
2019-02-22T07:29:39.371Z,23.87
2019-02-22T07:32:08.025Z,27.10
2019-02-22T07:34:36.695Z,27.33
2019-02-22T07:37:05.291Z,29.27
2019-02-22T07:39:33.898Z,23.50
2019-02-22T07:42:02.704Z,43.60
2019-02-22T07:44:31.361Z,27.20
2019-02-22T07:46:59.993Z,25.03
2019-02-22T07:49:28.559Z,33.67
2019-02-22T07:51:57.388Z,22.60
2019-02-22T07:54:26.221Z,26.27
2019-02-22T07:56:54.809Z,26.23
2019-02-22T07:59:23.386Z,19.57
2019-02-22T08:01:52.233Z,27.27
2019-02-22T08:04:20.809Z,28.00
2019-02-22T08:06:49.394Z,27.30
2019-02-22T08:09:18.068Z,23.40
2019-02-22T08:11:47.537Z,32.13
2019-02-22T08:14:16.745Z,29.20
2019-02-22T08:16:45.320Z,29.57
2019-02-22T08:19:13.924Z,28.50
2019-02-22T08:21:42.504Z,28.83
2019-02-22T08:24:11.120Z,26.27
2019-02-22T08:26:39.695Z,30.00
2019-02-22T08:29:08.283Z,31.90
2019-02-22T08:31:37.122Z,27.83
2019-02-22T08:34:05.704Z,25.10
2019-02-22T08:36:34.322Z,30.20
2019-02-22T08:39:02.910Z,30.10
2019-02-22T08:41:31.502Z,26.07
2019-02-22T08:44:00.137Z,24.40
2019-02-22T08:46:28.714Z,25.73
2019-02-22T08:48:57.297Z,23.13
2019-02-22T08:51:25.885Z,24.70
2019-02-22T08:53:54.759Z,24.50
2019-02-22T08:56:23.328Z,21.83
2019-02-22T08:58:51.991Z,21.90
2019-02-22T09:01:20.584Z,20.43
2019-02-22T09:03:50.924Z,20.00
2019-02-22T09:06:19.477Z,23.57
2019-02-22T09:08:48.069Z,19.03
2019-02-22T09:11:16.649Z,19.40
2019-02-22T09:13:45.250Z,28.93
2019-02-22T09:16:13.815Z,22.57
2019-02-22T09:18:42.652Z,19.90
2019-02-22T09:21:11.221Z,20.97
2019-02-22T09:23:40.035Z,22.13
2019-02-22T09:26:08.912Z,24.80
2019-02-22T09:28:37.785Z,23.03
2019-02-22T09:31:06.586Z,26.40
2019-02-22T09:33:35.190Z,24.10
2019-02-22T09:36:03.784Z,23.57
2019-02-22T09:38:32.436Z,20.43
2019-02-22T09:41:01.291Z,25.00
2019-02-22T09:43:29.866Z,21.80
2019-02-22T09:45:58.480Z,20.90
2019-02-22T09:48:27.547Z,23.07
2019-02-22T09:50:56.168Z,21.40
2019-02-22T09:53:25.006Z,18.03
2019-02-22T09:55:53.819Z,18.27
2019-02-22T09:58:22.493Z,21.50
2019-02-22T10:00:51.307Z,19.00
2019-02-22T10:03:19.910Z,16.27
2019-02-22T10:05:48.511Z,17.63
2019-02-22T10:08:17.115Z,22.00
2019-02-22T10:10:45.684Z,17.87
2019-02-22T10:13:14.282Z,19.60
2019-02-22T10:15:42.856Z,19.27
2019-02-22T10:18:11.454Z,18.47
2019-02-22T10:20:40.020Z,24.10
2019-02-22T10:23:08.625Z,21.47
2019-02-22T10:25:37.505Z,19.53
2019-02-22T10:28:17.024Z,17.37
2019-02-22T10:30:37.568Z,20.90
2019-02-22T10:33:06.452Z,20.00
2019-02-22T10:35:35.344Z,19.67
2019-02-22T10:38:04.432Z,20.67
2019-02-22T10:40:33.174Z,22.40
2019-02-22T10:43:02.368Z,19.27
2019-02-22T10:45:31.007Z,21.10
2019-02-22T10:47:59.618Z,19.47
2019-02-22T10:50:28.477Z,17.57
2019-02-22T10:53:02.301Z,16.93
2019-02-22T10:55:28.390Z,18.70
2019-02-22T10:57:57.249Z,15.80
2019-02-22T11:00:25.878Z,16.03
2019-02-22T11:02:54.505Z,24.97
2019-02-22T11:05:23.332Z,19.27
2019-02-22T11:07:51.932Z,19.03
2019-02-22T11:10:20.766Z,18.70
2019-02-22T11:12:49.357Z,21.77
2019-02-22T11:15:18.010Z,19.10
2019-02-22T11:17:46.575Z,18.43
2019-02-22T11:20:15.147Z,25.53
2019-02-22T11:22:44.316Z,20.90
2019-02-22T11:25:15.306Z,17.90
2019-02-22T11:27:43.269Z,21.40
2019-02-22T11:30:12.651Z,26.23
2019-02-22T11:32:41.225Z,19.77
2019-02-22T11:35:10.110Z,19.23
2019-02-22T11:37:39.022Z,20.40
2019-02-22T11:40:07.776Z,20.20
2019-02-22T11:42:36.883Z,20.70
2019-02-22T11:45:05.906Z,25.23
2019-02-22T11:47:34.524Z,22.50
2019-02-22T11:50:03.209Z,22.70
2019-02-22T11:52:31.781Z,25.00
2019-02-22T11:55:00.762Z,25.73
2019-02-22T11:57:29.659Z,26.60
2019-02-22T11:59:58.318Z,23.87
2019-02-22T12:02:26.992Z,23.53
2019-02-22T12:04:55.670Z,29.33
2019-02-22T12:07:24.345Z,28.27
2019-02-22T12:09:52.920Z,25.27
2019-02-22T12:12:21.546Z,24.03
2019-02-22T12:14:52.077Z,28.97
2019-02-22T12:17:20.898Z,28.67
2019-02-22T12:19:49.536Z,25.57
2019-02-22T12:22:18.229Z,32.77
2019-02-22T12:24:46.910Z,26.43
2019-02-22T12:27:15.701Z,26.50
2019-02-22T12:29:44.393Z,28.67
2019-02-22T12:32:13.293Z,28.93
2019-02-22T12:34:41.919Z,24.07
2019-02-22T12:37:10.538Z,27.70
2019-02-22T12:39:39.139Z,28.87
2019-02-22T12:42:07.784Z,21.47
2019-02-22T12:44:36.365Z,20.93
2019-02-22T12:47:05.068Z,25.00
2019-02-22T12:49:33.647Z,25.47
2019-02-22T12:52:02.636Z,26.83
2019-02-22T12:54:31.475Z,28.27
2019-02-22T12:57:00.224Z,21.80
2019-02-22T12:59:28.817Z,27.23
2019-02-22T13:01:57.518Z,25.17
2019-02-22T13:04:26.362Z,19.60
2019-02-22T13:06:55.166Z,25.00
2019-02-22T13:09:24.062Z,26.47
2019-02-22T13:11:52.755Z,25.90
2019-02-22T13:14:25.582Z,22.87
2019-02-22T13:16:54.206Z,24.33
2019-02-22T13:19:23.119Z,25.07
2019-02-22T13:21:51.933Z,21.10
2019-02-22T13:24:20.582Z,20.27
2019-02-22T13:26:49.156Z,26.20
2019-02-22T13:29:17.802Z,25.97
2019-02-22T13:31:46.398Z,24.73
2019-02-22T13:34:15.546Z,24.50
2019-02-22T13:36:44.323Z,23.67
2019-02-22T13:39:13.016Z,25.53
2019-02-22T13:41:42.804Z,30.23
2019-02-22T13:44:11.488Z,29.77
2019-02-22T13:46:40.180Z,22.93
2019-02-22T13:49:08.806Z,25.30
2019-02-22T13:51:41.157Z,25.53
2019-02-22T13:54:09.806Z,19.63
2019-02-22T13:56:38.485Z,20.03
2019-02-22T13:59:07.615Z,18.07
2019-02-22T14:01:38.562Z,19.93
2019-02-22T14:04:07.206Z,18.37
2019-02-22T14:06:35.809Z,29.80
2019-02-22T14:09:05.417Z,20.73
2019-02-22T14:11:34.368Z,23.70
2019-02-22T14:14:03.103Z,19.23
2019-02-22T14:16:31.718Z,22.00
2019-02-22T14:19:00.388Z,24.90
2019-02-22T14:21:29.126Z,17.70
2019-02-22T14:23:57.697Z,20.23
2019-02-22T14:26:26.324Z,25.53
2019-02-22T14:28:54.910Z,22.93
2019-02-22T14:31:23.577Z,26.57
2019-02-22T14:33:52.411Z,23.13
2019-02-22T14:36:21.599Z,21.47
2019-02-22T14:38:50.558Z,23.30
2019-02-22T14:41:19.878Z,28.63
2019-02-22T14:43:48.763Z,24.00
2019-02-22T14:46:25.533Z,22.60
2019-02-22T14:48:48.163Z,31.70
2019-02-22T14:51:17.446Z,29.57
2019-02-22T14:53:46.080Z,25.50
2019-02-22T14:56:14.764Z,29.67
2019-02-22T14:58:43.582Z,32.17
2019-02-22T15:01:12.226Z,38.83
2019-02-22T15:03:40.834Z,29.47
2019-02-22T15:06:09.586Z,33.57
2019-02-22T15:08:38.391Z,30.93
2019-02-22T15:11:09.200Z,34.77
2019-02-22T15:13:37.969Z,35.97
2019-02-22T15:16:16.880Z,33.07
2019-02-22T15:18:45.658Z,33.67
2019-02-22T15:21:14.285Z,35.27
2019-02-22T15:23:42.917Z,32.83
2019-02-22T15:26:11.584Z,28.57
2019-02-22T15:28:40.289Z,40.63
2019-02-22T15:31:09.278Z,37.67
2019-02-22T15:33:38.453Z,33.73
2019-02-22T15:36:07.921Z,39.23
2019-02-22T15:38:36.758Z,35.50
2019-02-22T15:41:05.648Z,34.40
2019-02-22T15:43:34.229Z,43.30
2019-02-22T15:46:11.784Z,31.00
2019-02-22T15:48:33.201Z,35.23
2019-02-22T15:51:04.436Z,34.37
2019-02-22T15:53:32.497Z,35.67
2019-02-22T15:56:01.125Z,28.47
2019-02-22T15:58:29.738Z,29.00
2019-02-22T16:00:59.550Z,32.20
2019-02-22T16:03:47.658Z,33.50
2019-02-22T16:06:16.527Z,31.73
2019-02-22T16:08:45.439Z,28.90
2019-02-22T16:11:14.038Z,25.80
2019-02-22T16:13:42.827Z,31.40
2019-02-22T16:16:11.424Z,30.93
2019-02-22T16:18:40.071Z,27.23
2019-02-22T16:21:08.685Z,32.00
2019-02-22T16:23:37.479Z,28.30
2019-02-22T16:26:06.378Z,29.00
2019-02-22T16:28:35.242Z,31.90
2019-02-22T16:31:04.254Z,27.40
2019-02-22T16:33:32.997Z,32.63
2019-02-22T16:36:01.715Z,25.13
2019-02-22T16:38:30.645Z,27.97
2019-02-22T16:40:59.311Z,30.33
2019-02-22T16:43:27.926Z,28.73
2019-02-22T16:45:56.626Z,26.27
2019-02-22T16:48:25.250Z,33.30
2019-02-22T16:50:54.052Z,26.47
2019-02-22T16:53:22.917Z,26.00
2019-02-22T16:55:51.522Z,30.30
2019-02-22T16:58:20.385Z,28.97
2019-02-22T17:00:49.062Z,29.13
2019-02-22T17:03:17.666Z,25.60
2019-02-22T17:05:46.448Z,25.00
2019-02-22T17:08:15.043Z,28.27
2019-02-22T17:10:44.732Z,25.13
2019-02-22T17:13:13.568Z,24.80
2019-02-22T17:15:42.261Z,23.23
2019-02-22T17:18:10.860Z,29.30
2019-02-22T17:20:39.510Z,22.70
2019-02-22T17:23:08.388Z,25.67
2019-02-22T17:25:37.062Z,20.60
2019-02-22T17:28:05.704Z,20.97
2019-02-22T17:30:34.414Z,19.57
2019-02-22T17:33:03.010Z,23.80
2019-02-22T17:35:31.602Z,23.70
2019-02-22T17:38:00.511Z,21.00
2019-02-22T17:40:29.345Z,17.30
2019-02-22T17:42:58.203Z,20.53
2019-02-22T17:45:26.786Z,22.03
2019-02-22T17:47:55.386Z,18.20
2019-02-22T17:50:24.314Z,28.40
2019-02-22T17:52:52.920Z,19.50
2019-02-22T17:55:21.536Z,20.73
2019-02-22T17:57:50.110Z,16.30
2019-02-22T18:00:19.994Z,16.60
2019-02-22T18:02:48.584Z,16.13
2019-02-22T18:05:17.306Z,17.90
2019-02-22T18:07:45.937Z,18.23
2019-02-22T18:10:14.597Z,15.60
2019-02-22T18:12:43.224Z,18.80
2019-02-22T18:15:14.290Z,16.97
2019-02-22T18:17:42.671Z,23.13
2019-02-22T18:20:11.281Z,20.80
2019-02-22T18:22:39.873Z,17.23
2019-02-22T18:25:08.617Z,20.33
2019-02-22T18:27:37.458Z,19.03
2019-02-22T18:30:07.592Z,19.57
2019-02-22T18:32:36.405Z,20.37
2019-02-22T18:35:05.356Z,22.33
2019-02-22T18:37:34.166Z,18.27
2019-02-22T18:40:02.769Z,21.97
2019-02-22T18:42:31.378Z,24.97
2019-02-22T18:44:59.974Z,27.23
2019-02-22T18:47:28.835Z,28.03
2019-02-22T18:49:57.468Z,21.73
2019-02-22T18:52:26.089Z,27.67
2019-02-22T18:54:54.735Z,25.17
2019-02-22T18:57:23.342Z,27.03
2019-02-22T18:59:51.957Z,23.43
2019-02-22T19:02:20.550Z,26.43
2019-02-22T19:04:49.215Z,24.83
2019-02-22T19:07:17.774Z,21.90
2019-02-22T19:09:46.675Z,25.67
2019-02-22T19:12:15.277Z,23.00
2019-02-22T19:14:43.926Z,23.83
2019-02-22T19:17:12.505Z,24.60
2019-02-22T19:19:41.112Z,24.10
2019-02-22T19:22:09.895Z,30.83
2019-02-22T19:24:38.837Z,25.23
2019-02-22T19:27:07.428Z,26.80
2019-02-22T19:29:36.085Z,24.17
2019-02-22T19:32:05.040Z,28.60
2019-02-22T19:34:33.623Z,30.50
2019-02-22T19:37:02.206Z,25.50
2019-02-22T19:39:31.060Z,22.73
2019-02-22T19:41:59.690Z,27.87
2019-02-22T19:44:28.819Z,21.30
2019-02-22T19:46:57.658Z,26.47
2019-02-22T19:49:26.781Z,22.43
2019-02-22T19:51:55.766Z,25.10
2019-02-22T19:54:24.602Z,22.73
2019-02-22T19:56:53.310Z,21.77
2019-02-22T19:59:22.161Z,24.57
2019-02-22T20:01:51.261Z,22.80
2019-02-22T20:04:20.081Z,21.90
2019-02-22T20:06:48.669Z,27.33
2019-02-22T20:09:17.275Z,23.90
2019-02-22T20:11:48.088Z,25.80
2019-02-22T20:14:16.301Z,26.03
2019-02-22T20:16:44.922Z,25.40
2019-02-22T20:19:13.507Z,22.37
2019-02-22T20:21:42.150Z,24.27
2019-02-22T20:24:11.011Z,24.17
2019-02-22T20:26:39.641Z,29.03
2019-02-22T20:29:08.341Z,24.67
2019-02-22T20:31:36.948Z,25.97
2019-02-22T20:34:05.649Z,25.30
2019-02-22T20:36:34.271Z,28.30
2019-02-22T20:39:02.857Z,30.03
2019-02-22T20:41:31.475Z,27.73
2019-02-22T20:44:00.093Z,28.23
2019-02-22T20:46:28.858Z,31.87
2019-02-22T20:49:00.827Z,28.07
2019-02-22T20:51:28.017Z,29.00
2019-02-22T20:53:56.647Z,28.93
2019-02-22T20:56:25.270Z,41.70
2019-02-22T20:58:53.848Z,27.73
2019-02-22T21:01:22.477Z,29.10
2019-02-22T21:03:51.057Z,37.47
2019-02-22T21:06:19.646Z,35.23
2019-02-22T21:08:49.370Z,33.77
2019-02-22T21:11:18.510Z,34.83
2019-02-22T21:13:47.383Z,35.83
2019-02-22T21:16:16.216Z,38.03
2019-02-22T21:18:46.252Z,33.97
2019-02-22T21:21:15.174Z,34.20
2019-02-22T21:23:43.788Z,42.83
2019-02-22T21:26:12.487Z,34.67
2019-02-22T21:28:41.142Z,34.20
2019-02-22T21:31:09.730Z,35.03
2019-02-22T21:33:38.356Z,33.43
2019-02-22T21:36:06.972Z,37.00
2019-02-22T21:38:35.812Z,32.87
2019-02-22T21:41:04.457Z,37.97
2019-02-22T21:43:33.303Z,40.87
2019-02-22T21:46:02.227Z,40.20
2019-02-22T21:48:31.036Z,44.20
2019-02-22T21:50:59.632Z,40.67
2019-02-22T21:53:28.356Z,38.50
2019-02-22T21:55:56.964Z,44.37
2019-02-22T21:58:25.559Z,41.93
2019-02-22T22:00:54.385Z,41.17
2019-02-22T22:03:23.069Z,35.93
2019-02-22T22:05:51.684Z,38.37
2019-02-22T22:08:20.262Z,36.40
2019-02-22T22:10:48.832Z,37.53
2019-02-22T22:13:17.497Z,37.00
2019-02-22T22:15:46.065Z,33.33
2019-02-22T22:18:15.183Z,30.77
2019-02-22T22:20:43.947Z,35.90
2019-02-22T22:23:12.795Z,36.37
2019-02-22T22:25:41.376Z,37.40
2019-02-22T22:28:10.045Z,36.20
2019-02-22T22:30:38.675Z,35.20
2019-02-22T22:33:07.308Z,35.33
2019-02-22T22:35:37.287Z,32.70
2019-02-22T22:38:06.168Z,34.23
2019-02-22T22:40:34.970Z,33.63
2019-02-22T22:43:03.579Z,34.40
2019-02-22T22:45:32.356Z,41.20
2019-02-22T22:48:01.131Z,32.27
2019-02-22T22:50:29.732Z,39.67
2019-02-22T22:52:58.806Z,35.80
2019-02-22T22:55:27.725Z,38.77
2019-02-22T22:57:56.597Z,38.73
2019-02-22T23:00:35.645Z,38.77
2019-02-22T23:03:04.599Z,45.20
2019-02-22T23:05:33.573Z,39.37
2019-02-22T23:08:02.405Z,43.63
2019-02-22T23:10:31.000Z,38.03
2019-02-22T23:12:59.814Z,36.70
2019-02-22T23:15:28.458Z,37.07
2019-02-22T23:17:57.288Z,40.10
2019-02-22T23:20:25.974Z,34.63
2019-02-22T23:22:54.583Z,42.30
2019-02-22T23:25:23.210Z,36.70
2019-02-22T23:27:51.831Z,38.48
2019-02-22T23:30:20.465Z,41.83
2019-02-22T23:32:49.149Z,42.73
2019-02-22T23:35:17.723Z,65.47
2019-02-22T23:37:46.407Z,43.53
2019-02-22T23:40:15.001Z,42.27
2019-02-22T23:42:43.953Z,39.63
2019-02-22T23:45:12.530Z,42.73
2019-02-22T23:47:41.107Z,169.00
2019-02-22T23:50:09.702Z,51.20
2019-02-22T23:52:38.352Z,57.50
2019-02-22T23:55:07.037Z,70.72
2019-02-22T23:57:35.905Z,78.45
